York, Wisconsin
Current Conditions -  °F | °C
As of 8:54 AM on Sunday 21 Dec 2014 (Local Time) from KMFI Reporting Station
Haze Haze  
Wind Chill: -5°   Ceiling: 300
Heat Index: -1°   Visibility: 1.2mi
Dew Point: -2°   Wind: 9mph
Humidity: 89%   Direction: 160°SSE
Pressure: 30.02"   Gusts: NA
Location:  44.5388°N, 90.4382°W
Report Text: KMFI 211454Z AUTO 16008KT 1 1/4SM BR OVC003 M01/M02 A3002 RMK AO2 SLP181 T10061022 56010
Loading
Personal Weather Stations






























Interactive Weather Map New forecast layout! Learn more

10-Day Weather Forecast

Advertisements
Track Severe Weather on mobile